createdAt,value
2022-11-17T00:01:39.878Z,0.30
2022-11-17T00:04:09.877Z,0.40
2022-11-17T00:06:38.322Z,0.60
2022-11-17T00:09:06.836Z,0.32
2022-11-17T00:11:49.321Z,0.50
2022-11-17T00:14:36.753Z,0.70
2022-11-17T00:17:08.038Z,0.52
2022-11-17T00:19:55.491Z,0.35
2022-11-17T00:22:24.519Z,0.98
2022-11-17T00:24:53.013Z,0.93
2022-11-17T00:27:21.605Z,0.75
2022-11-17T00:29:50.141Z,1.00
2022-11-17T00:32:51.545Z,0.95
2022-11-17T00:35:21.242Z,0.90
2022-11-17T00:38:03.677Z,1.00
2022-11-17T00:40:32.360Z,1.38
2022-11-17T00:43:00.957Z,1.20
2022-11-17T00:45:31.085Z,1.30
2022-11-17T00:47:59.552Z,1.00
2022-11-17T00:50:29.608Z,1.02
2022-11-17T00:52:58.022Z,0.73
2022-11-17T00:55:26.822Z,1.15
2022-11-17T00:57:55.318Z,1.35
2022-11-17T01:00:23.756Z,1.25
2022-11-17T01:02:52.227Z,1.25
2022-11-17T01:05:20.804Z,1.63
2022-11-17T01:07:50.616Z,1.17
2022-11-17T01:10:19.362Z,1.10
2022-11-17T01:12:47.827Z,0.90
2022-11-17T01:15:16.516Z,1.40
2022-11-17T01:17:45.117Z,1.20
2022-11-17T01:20:13.678Z,0.85
2022-11-17T01:22:42.165Z,1.25
2022-11-17T01:25:12.389Z,1.35
2022-11-17T01:27:41.014Z,0.95
2022-11-17T01:30:12.581Z,1.17
2022-11-17T01:32:41.133Z,0.98
2022-11-17T01:35:10.270Z,1.40
2022-11-17T01:37:38.801Z,1.05
2022-11-17T01:40:08.850Z,1.35
2022-11-17T01:42:39.120Z,1.20
2022-11-17T01:45:19.932Z,1.33
2022-11-17T01:47:52.703Z,1.27
2022-11-17T01:50:30.325Z,1.40
2022-11-17T01:53:01.620Z,1.30
2022-11-17T01:55:36.584Z,1.40
2022-11-17T01:58:11.749Z,1.50
2022-11-17T02:00:40.589Z,1.58
2022-11-17T02:03:09.330Z,1.50
2022-11-17T02:05:45.948Z,1.40
2022-11-17T02:08:16.457Z,1.38
2022-11-17T02:10:50.335Z,1.42
2022-11-17T02:13:22.469Z,1.45
2022-11-17T02:15:51.213Z,1.25
2022-11-17T02:18:19.706Z,1.40
2022-11-17T02:21:09.817Z,1.23
2022-11-17T02:24:01.493Z,1.30
2022-11-17T02:26:59.370Z,1.70
2022-11-17T02:29:36.697Z,1.17
2022-11-17T02:32:08.730Z,1.30
2022-11-17T02:34:44.167Z,1.58
2022-11-17T02:37:21.928Z,1.05
2022-11-17T02:40:00.712Z,1.27
2022-11-17T02:42:53.120Z,1.40
2022-11-17T02:45:27.267Z,1.15
2022-11-17T02:47:59.295Z,1.20
2022-11-17T02:50:30.987Z,1.10
2022-11-17T02:52:59.662Z,1.10
2022-11-17T02:55:33.234Z,1.15
2022-11-17T02:58:01.676Z,0.95
2022-11-17T03:00:34.544Z,0.93
2022-11-17T03:03:20.470Z,1.35
2022-11-17T03:05:57.941Z,1.42
2022-11-17T03:08:36.856Z,1.10
2022-11-17T03:11:07.881Z,1.17
2022-11-17T03:13:45.273Z,1.20
2022-11-17T03:16:25.708Z,1.10
2022-11-17T03:19:05.919Z,0.98
2022-11-17T03:21:39.823Z,1.40
2022-11-17T03:24:13.795Z,1.05
2022-11-17T03:26:46.146Z,1.30
2022-11-17T03:29:18.124Z,1.20
2022-11-17T03:31:49.804Z,1.90
2022-11-17T03:34:23.604Z,1.90
2022-11-17T03:36:55.320Z,1.25
2022-11-17T03:39:26.533Z,1.52
2022-11-17T03:42:00.402Z,1.40
2022-11-17T03:44:31.775Z,1.48
2022-11-17T03:47:06.302Z,1.52
2022-11-17T03:49:39.682Z,1.90
2022-11-17T03:52:08.406Z,1.20
2022-11-17T03:54:37.766Z,1.20
2022-11-17T03:57:12.678Z,1.33
2022-11-17T03:59:47.933Z,1.30
2022-11-17T04:02:19.657Z,1.15
2022-11-17T04:05:05.412Z,1.05
2022-11-17T04:07:34.481Z,2.17
2022-11-17T04:10:03.102Z,1.42
2022-11-17T04:12:48.980Z,1.27
2022-11-17T04:15:34.916Z,1.60
2022-11-17T04:18:04.944Z,1.25
2022-11-17T04:20:36.947Z,1.20
2022-11-17T04:23:09.139Z,1.48
2022-11-17T04:25:55.248Z,1.52
2022-11-17T04:28:39.329Z,1.45
2022-11-17T04:31:08.919Z,1.27
2022-11-17T04:33:39.440Z,1.30
2022-11-17T04:36:08.414Z,0.90
2022-11-17T04:38:37.070Z,0.82
2022-11-17T04:41:24.784Z,1.00
2022-11-17T04:43:53.625Z,0.65
2022-11-17T04:46:25.040Z,1.10
2022-11-17T04:48:55.873Z,1.30
2022-11-17T04:51:24.622Z,0.70
2022-11-17T04:53:53.155Z,0.63
2022-11-17T04:56:21.931Z,0.75
2022-11-17T04:58:50.887Z,0.77
2022-11-17T05:01:19.960Z,1.02
2022-11-17T05:03:49.054Z,0.85
2022-11-17T05:06:20.205Z,0.60
2022-11-17T05:08:49.422Z,0.57
2022-11-17T05:11:36.287Z,0.52
2022-11-17T05:14:04.906Z,0.65
2022-11-17T05:16:50.449Z,0.70
2022-11-17T05:19:20.044Z,0.63
2022-11-17T05:21:49.905Z,0.47
2022-11-17T05:24:17.636Z,0.70
2022-11-17T05:26:47.017Z,0.50
2022-11-17T05:29:17.033Z,0.52
2022-11-17T05:31:45.900Z,0.95
2022-11-17T05:34:15.459Z,0.80
2022-11-17T05:36:44.095Z,0.50
2022-11-17T05:39:14.636Z,0.50
2022-11-17T05:41:43.530Z,0.85
2022-11-17T05:44:12.126Z,0.57
2022-11-17T05:46:40.630Z,0.40
2022-11-17T05:49:09.208Z,0.65
2022-11-17T05:51:38.507Z,0.40
2022-11-17T05:54:07.217Z,0.40
2022-11-17T05:56:38.838Z,0.88
2022-11-17T05:59:16.422Z,0.57
2022-11-17T06:01:48.646Z,0.40
2022-11-17T06:04:18.840Z,0.52
2022-11-17T06:06:48.391Z,0.63
2022-11-17T06:09:17.198Z,0.52
2022-11-17T06:11:47.006Z,0.90
2022-11-17T06:14:15.688Z,0.57
2022-11-17T06:16:45.335Z,1.17
2022-11-17T06:19:16.810Z,0.70
2022-11-17T06:22:10.650Z,0.77
2022-11-17T06:24:34.456Z,0.40
2022-11-17T06:27:04.326Z,0.60
2022-11-17T06:29:33.159Z,0.68
2022-11-17T06:32:01.975Z,0.75
2022-11-17T06:34:31.878Z,0.70
2022-11-17T06:37:00.608Z,0.80
2022-11-17T06:39:29.239Z,0.43
2022-11-17T06:41:57.914Z,0.50
2022-11-17T06:44:27.942Z,0.75
2022-11-17T06:46:56.800Z,0.57
2022-11-17T06:49:25.451Z,0.63
2022-11-17T06:51:54.093Z,0.50
2022-11-17T06:54:22.669Z,0.73
2022-11-17T06:56:52.413Z,0.52
2022-11-17T06:59:21.007Z,0.60
2022-11-17T07:01:50.854Z,0.65
2022-11-17T07:04:19.457Z,0.68
2022-11-17T07:06:48.025Z,0.63
2022-11-17T07:09:16.577Z,0.80
2022-11-17T07:11:45.139Z,0.55
2022-11-17T07:14:13.809Z,0.75
2022-11-17T07:16:43.798Z,0.55
2022-11-17T07:19:14.408Z,0.40
2022-11-17T07:21:43.069Z,0.52
2022-11-17T07:24:11.871Z,0.40
2022-11-17T07:26:40.518Z,0.85
2022-11-17T07:29:09.086Z,0.60
2022-11-17T07:31:37.813Z,0.65
2022-11-17T07:34:06.508Z,0.68
2022-11-17T07:36:36.437Z,0.60
2022-11-17T07:39:06.484Z,0.57
2022-11-17T07:41:35.355Z,0.50
2022-11-17T07:44:04.110Z,0.75
2022-11-17T07:46:32.769Z,0.60
2022-11-17T07:49:01.656Z,0.60
2022-11-17T07:51:30.481Z,1.25
2022-11-17T07:53:59.256Z,0.88
2022-11-17T07:56:29.188Z,0.60
2022-11-17T07:58:57.843Z,0.57
2022-11-17T08:01:27.627Z,0.40
2022-11-17T08:03:56.954Z,0.63
2022-11-17T08:06:25.621Z,0.73
2022-11-17T08:08:54.791Z,0.57
2022-11-17T08:11:23.427Z,0.50
2022-11-17T08:13:53.459Z,0.50
2022-11-17T08:16:22.204Z,0.77
2022-11-17T08:18:52.595Z,0.50
2022-11-17T08:21:21.550Z,0.60
2022-11-17T08:23:52.362Z,0.82
2022-11-17T08:26:21.580Z,0.77
2022-11-17T08:28:53.695Z,0.80
2022-11-17T08:31:27.799Z,0.82
2022-11-17T08:33:56.634Z,0.85
2022-11-17T08:36:25.159Z,0.88
2022-11-17T08:38:54.286Z,0.43
2022-11-17T08:41:23.375Z,0.50
2022-11-17T08:43:52.129Z,1.08
2022-11-17T08:46:20.806Z,0.55
2022-11-17T08:48:55.503Z,0.60
2022-11-17T08:51:27.279Z,0.70
2022-11-17T08:53:55.844Z,0.50
2022-11-17T08:56:24.395Z,0.60
2022-11-17T08:58:52.985Z,0.60
2022-11-17T09:01:21.543Z,0.77
2022-11-17T09:03:51.397Z,0.40
2022-11-17T09:06:20.091Z,0.50
2022-11-17T09:08:48.900Z,0.70
2022-11-17T09:11:17.676Z,0.73
2022-11-17T09:13:46.936Z,0.73
2022-11-17T09:16:16.007Z,1.00
2022-11-17T09:18:44.395Z,0.52
2022-11-17T09:21:16.545Z,0.82
2022-11-17T09:23:45.129Z,0.60
2022-11-17T09:26:14.476Z,0.80
2022-11-17T09:28:43.126Z,0.65
2022-11-17T09:31:12.678Z,0.60
2022-11-17T09:33:41.290Z,1.70
2022-11-17T09:36:10.022Z,1.27
2022-11-17T09:38:40.298Z,1.80
2022-11-17T09:41:14.172Z,1.02
2022-11-17T09:43:44.993Z,0.60
2022-11-17T09:46:17.149Z,0.75
2022-11-17T09:48:48.094Z,0.52
2022-11-17T09:51:18.740Z,1.23
2022-11-17T09:53:51.514Z,0.85
2022-11-17T09:56:20.175Z,1.40
2022-11-17T09:58:51.648Z,1.20
2022-11-17T10:01:21.504Z,0.90
2022-11-17T10:03:51.402Z,1.23
2022-11-17T10:06:22.177Z,1.02
2022-11-17T10:08:55.352Z,0.90
2022-11-17T10:11:32.772Z,1.15
2022-11-17T10:14:03.664Z,0.60
2022-11-17T10:16:32.740Z,0.68
2022-11-17T10:19:03.354Z,0.90
2022-11-17T10:21:32.454Z,1.00
2022-11-17T10:24:02.392Z,0.52
2022-11-17T10:26:31.678Z,0.70
2022-11-17T10:29:08.940Z,1.20
2022-11-17T10:31:44.744Z,0.93
2022-11-17T10:34:13.525Z,0.63
2022-11-17T10:36:47.981Z,0.90
2022-11-17T10:39:35.075Z,0.80
2022-11-17T10:42:04.909Z,0.90
2022-11-17T10:44:34.348Z,0.70
2022-11-17T10:47:04.210Z,0.70
2022-11-17T10:49:35.250Z,1.20
2022-11-17T10:52:08.012Z,1.10
2022-11-17T10:54:37.851Z,0.82
2022-11-17T10:57:07.845Z,0.80
2022-11-17T10:59:44.221Z,1.15
2022-11-17T11:02:27.509Z,1.20
2022-11-17T11:05:06.995Z,0.70
2022-11-17T11:07:35.608Z,0.73
2022-11-17T11:10:08.593Z,0.73
2022-11-17T11:12:38.382Z,0.65
2022-11-17T11:15:09.216Z,0.73
2022-11-17T11:17:37.979Z,0.73
2022-11-17T11:20:07.987Z,0.50
2022-11-17T11:22:38.086Z,0.60
2022-11-17T11:25:12.264Z,0.60
2022-11-17T11:27:49.234Z,0.77
2022-11-17T11:30:18.459Z,0.82
2022-11-17T11:32:53.142Z,0.85
2022-11-17T11:35:48.761Z,0.85
2022-11-17T11:38:21.962Z,0.98
2022-11-17T11:40:57.842Z,0.65
2022-11-17T11:43:30.266Z,0.77
2022-11-17T11:46:02.153Z,0.80
2022-11-17T11:48:33.787Z,0.75
2022-11-17T11:51:03.895Z,1.25
2022-11-17T11:53:39.991Z,0.80
2022-11-17T11:56:16.042Z,0.73
2022-11-17T11:58:46.906Z,0.60
2022-11-17T12:01:17.748Z,0.75
2022-11-17T12:03:49.764Z,0.82
2022-11-17T12:06:41.698Z,0.63
2022-11-17T12:09:25.170Z,0.90
2022-11-17T12:12:02.069Z,0.70
2022-11-17T12:14:31.335Z,0.50
2022-11-17T12:17:05.150Z,0.60
2022-11-17T12:19:52.680Z,0.77
2022-11-17T12:22:27.607Z,0.55
2022-11-17T12:24:58.084Z,0.50
2022-11-17T12:27:43.236Z,0.60
2022-11-17T12:30:26.590Z,0.50
2022-11-17T12:32:55.430Z,0.60
2022-11-17T12:35:25.334Z,0.80
2022-11-17T12:38:08.624Z,0.43
2022-11-17T12:40:44.407Z,0.57
2022-11-17T12:43:24.169Z,0.77
2022-11-17T12:46:16.395Z,0.65
2022-11-17T12:48:48.529Z,0.68
2022-11-17T12:51:18.744Z,0.90
2022-11-17T12:53:54.239Z,0.75
2022-11-17T12:56:32.977Z,0.80
2022-11-17T12:59:26.393Z,0.57
2022-11-17T13:01:57.963Z,0.57
2022-11-17T13:04:31.016Z,0.68
2022-11-17T13:07:00.303Z,0.63
2022-11-17T13:09:29.811Z,0.82
2022-11-17T13:12:02.296Z,0.80
2022-11-17T13:14:32.542Z,1.00
2022-11-17T13:17:01.333Z,0.77
2022-11-17T13:19:32.878Z,0.73
2022-11-17T13:22:02.334Z,0.60
2022-11-17T13:24:32.220Z,0.70
2022-11-17T13:27:01.220Z,0.70
2022-11-17T13:29:30.005Z,0.82
2022-11-17T13:32:15.308Z,0.70
2022-11-17T13:34:47.945Z,0.70
2022-11-17T13:37:19.043Z,1.13
2022-11-17T13:40:00.989Z,0.77
2022-11-17T13:42:31.984Z,0.60
2022-11-17T13:45:02.023Z,0.70
2022-11-17T13:47:45.470Z,0.77
2022-11-17T13:50:35.120Z,0.47
2022-11-17T13:53:04.620Z,0.90
2022-11-17T13:55:33.444Z,0.90
2022-11-17T13:58:03.232Z,0.75
2022-11-17T14:00:32.385Z,0.70
2022-11-17T14:03:03.260Z,0.73
2022-11-17T14:05:32.657Z,0.90
2022-11-17T14:08:14.347Z,0.90
2022-11-17T14:10:42.987Z,0.57
2022-11-17T14:13:20.465Z,0.50
2022-11-17T14:15:53.998Z,0.65
2022-11-17T14:18:27.380Z,1.05
2022-11-17T14:21:09.125Z,0.70
2022-11-17T14:23:37.782Z,0.70
2022-11-17T14:26:06.354Z,0.65
2022-11-17T14:28:34.827Z,0.45
2022-11-17T14:31:03.523Z,0.90
2022-11-17T14:33:33.464Z,1.05
2022-11-17T14:36:02.061Z,0.93
2022-11-17T14:38:30.929Z,0.80
2022-11-17T14:40:59.561Z,0.60
2022-11-17T14:43:28.111Z,1.48
2022-11-17T14:45:56.735Z,0.50
2022-11-17T14:48:25.198Z,0.70
2022-11-17T14:50:58.809Z,0.47
2022-11-17T14:53:27.723Z,0.70
2022-11-17T14:55:56.304Z,0.50
2022-11-17T14:58:25.105Z,1.08
2022-11-17T15:00:53.664Z,0.60
2022-11-17T15:03:22.250Z,0.75
2022-11-17T15:05:51.324Z,0.70
2022-11-17T15:08:21.285Z,1.05
2022-11-17T15:10:51.300Z,0.80
2022-11-17T15:13:19.687Z,0.77
2022-11-17T15:15:48.377Z,0.90
2022-11-17T15:18:16.794Z,0.70
2022-11-17T15:20:45.567Z,0.90
2022-11-17T15:23:14.165Z,1.15
2022-11-17T15:25:44.112Z,1.10
2022-11-17T15:28:18.943Z,1.15
2022-11-17T15:30:50.171Z,0.90
2022-11-17T15:33:18.739Z,0.70
2022-11-17T15:35:47.316Z,0.82
2022-11-17T15:38:16.671Z,0.90
2022-11-17T15:40:54.600Z,0.80
2022-11-17T15:43:23.283Z,0.80
2022-11-17T15:45:51.884Z,0.80
2022-11-17T15:48:20.542Z,0.80
2022-11-17T15:50:49.177Z,0.90
2022-11-17T15:53:17.709Z,0.90
2022-11-17T15:57:24.533Z,0.93
2022-11-17T15:59:53.084Z,0.80
2022-11-17T16:02:21.655Z,0.85
2022-11-17T16:04:50.227Z,1.00
2022-11-17T16:07:18.742Z,1.15
2022-11-17T16:09:49.272Z,0.90
2022-11-17T16:12:19.205Z,0.93
2022-11-17T16:14:49.490Z,1.10
2022-11-17T16:17:17.874Z,0.70
2022-11-17T16:19:46.644Z,1.42
2022-11-17T16:22:15.240Z,1.05
2022-11-17T16:24:44.067Z,0.90
2022-11-17T16:27:13.706Z,0.80
2022-11-17T16:29:42.563Z,1.17
2022-11-17T16:32:12.319Z,1.13
2022-11-17T16:34:41.548Z,1.10
2022-11-17T16:37:10.250Z,1.20
2022-11-17T16:39:39.669Z,1.00
2022-11-17T16:42:08.306Z,0.82
2022-11-17T16:44:37.014Z,1.08
2022-11-17T16:47:07.066Z,0.93
2022-11-17T16:49:37.038Z,1.20
2022-11-17T16:52:05.552Z,1.08
2022-11-17T16:54:34.192Z,0.82
2022-11-17T16:57:02.834Z,1.20
2022-11-17T16:59:31.356Z,1.40
2022-11-17T17:02:00.105Z,1.20
2022-11-17T17:04:31.256Z,1.30
2022-11-17T17:07:01.112Z,1.17
2022-11-17T17:09:30.330Z,1.10
2022-11-17T17:11:59.131Z,1.10
2022-11-17T17:14:27.881Z,1.13
2022-11-17T17:16:56.375Z,1.00
2022-11-17T17:19:25.061Z,1.33
2022-11-17T17:21:53.618Z,1.33
2022-11-17T17:24:23.461Z,1.42
2022-11-17T17:26:51.966Z,1.20
2022-11-17T17:29:20.597Z,1.10
2022-11-17T17:31:49.317Z,1.00
2022-11-17T17:34:17.872Z,0.95
2022-11-17T17:36:46.303Z,1.17
2022-11-17T17:39:15.670Z,1.40
2022-11-17T17:41:46.177Z,1.13
2022-11-17T17:44:16.478Z,1.58
2022-11-17T17:46:45.451Z,1.15
2022-11-17T17:49:14.781Z,1.20
2022-11-17T17:51:44.725Z,1.55
2022-11-17T17:54:16.579Z,1.38
2022-11-17T17:56:46.518Z,1.17
2022-11-17T17:59:15.910Z,1.30
2022-11-17T18:01:46.284Z,1.00
2022-11-17T18:04:16.524Z,1.25
2022-11-17T18:06:47.504Z,1.05
2022-11-17T18:09:19.537Z,1.10
2022-11-17T18:11:51.141Z,1.25
2022-11-17T18:14:24.264Z,1.33
2022-11-17T18:16:53.541Z,1.75
2022-11-17T18:19:22.360Z,1.42
2022-11-17T18:21:51.039Z,1.38
2022-11-17T18:24:19.750Z,1.38
2022-11-17T18:26:48.209Z,1.15
2022-11-17T18:29:19.674Z,1.90
2022-11-17T18:31:49.457Z,1.30
2022-11-17T18:34:20.851Z,1.33
2022-11-17T18:36:49.643Z,1.60
2022-11-17T18:39:18.715Z,1.42
2022-11-17T18:41:49.997Z,1.60
2022-11-17T18:44:20.538Z,1.50
2022-11-17T18:46:49.207Z,1.50
2022-11-17T18:49:18.779Z,1.27
2022-11-17T18:51:47.994Z,1.20
2022-11-17T18:54:16.717Z,1.40
2022-11-17T18:56:45.479Z,2.35
2022-11-17T18:59:14.964Z,1.20
2022-11-17T19:01:45.699Z,1.60
2022-11-17T19:04:15.185Z,1.40
2022-11-17T19:06:43.920Z,1.77
2022-11-17T19:09:13.439Z,1.40
2022-11-17T19:11:42.526Z,1.15
2022-11-17T19:14:11.139Z,2.25
2022-11-17T19:16:44.523Z,2.47
2022-11-17T19:19:15.853Z,1.65
2022-11-17T19:21:44.620Z,1.35
2022-11-17T19:24:13.351Z,1.27
2022-11-17T19:26:42.888Z,1.25
2022-11-17T19:29:16.718Z,1.38
2022-11-17T19:31:46.478Z,1.42
2022-11-17T19:34:16.653Z,1.10
2022-11-17T19:36:45.604Z,0.77
2022-11-17T19:39:15.233Z,1.00
2022-11-17T19:41:45.136Z,0.90
2022-11-17T19:44:13.972Z,0.80
2022-11-17T19:46:43.338Z,1.08
2022-11-17T19:49:13.286Z,0.75
2022-11-17T19:51:43.473Z,1.23
2022-11-17T19:54:13.371Z,1.10
2022-11-17T19:56:41.944Z,0.82
2022-11-17T19:59:15.648Z,0.90
2022-11-17T20:01:45.085Z,0.90
2022-11-17T20:04:13.672Z,0.85
2022-11-17T20:06:43.643Z,0.95
2022-11-17T20:09:12.873Z,1.00
2022-11-17T20:11:41.793Z,0.90
2022-11-17T20:14:10.996Z,0.95
2022-11-17T20:16:39.617Z,0.98
2022-11-17T20:19:08.152Z,1.00
2022-11-17T20:21:36.860Z,0.90
2022-11-17T20:24:06.847Z,0.93
2022-11-17T20:26:36.248Z,1.00
2022-11-17T20:29:05.026Z,1.08
2022-11-17T20:31:34.171Z,2.10
2022-11-17T20:34:03.896Z,1.13
2022-11-17T20:36:33.277Z,1.35
2022-11-17T20:39:02.602Z,1.50
2022-11-17T20:41:32.772Z,1.05
2022-11-17T20:44:01.894Z,1.20
2022-11-17T20:46:30.640Z,1.40
2022-11-17T20:48:59.401Z,1.40
2022-11-17T20:51:28.080Z,1.38
2022-11-17T20:53:56.910Z,1.50
2022-11-17T20:56:25.618Z,1.10
2022-11-17T20:58:55.464Z,1.40
2022-11-17T21:01:24.620Z,1.27
2022-11-17T21:03:53.329Z,1.73
2022-11-17T21:06:23.340Z,1.42
2022-11-17T21:08:51.878Z,1.25
2022-11-17T21:11:34.996Z,1.40
2022-11-17T21:14:05.602Z,1.50
2022-11-17T21:16:34.115Z,1.50
2022-11-17T21:19:02.615Z,2.10
2022-11-17T21:21:31.330Z,2.00
2022-11-17T21:24:00.010Z,1.80
2022-11-17T21:26:28.892Z,1.70
2022-11-17T21:29:01.751Z,1.67
2022-11-17T21:31:35.196Z,1.80
2022-11-17T21:34:04.449Z,1.70
2022-11-17T21:36:33.402Z,2.00
2022-11-17T21:39:02.224Z,1.77
2022-11-17T21:41:31.371Z,1.33
2022-11-17T21:44:01.934Z,1.33
2022-11-17T21:46:31.183Z,1.35
2022-11-17T21:49:01.935Z,1.40
2022-11-17T21:51:33.279Z,1.65
2022-11-17T21:54:02.585Z,2.00
2022-11-17T21:56:32.126Z,2.05
2022-11-17T21:59:01.277Z,1.75
2022-11-17T22:01:30.216Z,1.60
2022-11-17T22:03:59.035Z,1.60
2022-11-17T22:06:29.257Z,1.92
2022-11-17T22:08:58.637Z,1.73
2022-11-17T22:11:37.782Z,2.28
2022-11-17T22:14:08.059Z,1.60
2022-11-17T22:16:37.116Z,1.50
2022-11-17T22:19:05.996Z,1.80
2022-11-17T22:21:36.573Z,2.10
2022-11-17T22:24:05.287Z,1.48
2022-11-17T22:26:35.913Z,1.88
2022-11-17T22:29:04.674Z,1.73
2022-11-17T22:31:33.345Z,2.08
2022-11-17T22:34:01.915Z,2.50
2022-11-17T22:36:30.589Z,1.90
2022-11-17T22:39:00.642Z,1.98
2022-11-17T22:41:29.297Z,2.33
2022-11-17T22:43:58.517Z,2.33
2022-11-17T22:46:28.202Z,2.83
2022-11-17T22:48:56.919Z,2.50
2022-11-17T22:51:43.896Z,2.35
2022-11-17T22:54:14.057Z,2.50
2022-11-17T22:56:42.742Z,1.95
2022-11-17T22:59:11.188Z,2.53
2022-11-17T23:01:39.740Z,2.22
2022-11-17T23:04:08.608Z,2.17
2022-11-17T23:06:37.199Z,2.22
2022-11-17T23:09:06.079Z,1.83
2022-11-17T23:11:37.885Z,1.70
2022-11-17T23:14:07.574Z,1.58
2022-11-17T23:16:36.756Z,1.88
2022-11-17T23:19:05.864Z,1.85
2022-11-17T23:21:34.943Z,1.45
2022-11-17T23:24:03.619Z,1.75
2022-11-17T23:26:32.186Z,1.80
2022-11-17T23:29:01.951Z,1.67
2022-11-17T23:31:30.487Z,2.05
2022-11-17T23:33:59.028Z,1.40
2022-11-17T23:36:27.516Z,1.17
2022-11-17T23:38:57.246Z,1.52
2022-11-17T23:41:26.231Z,1.15
2022-11-17T23:43:55.683Z,1.15
2022-11-17T23:46:27.328Z,1.10
2022-11-17T23:48:57.102Z,1.30
2022-11-17T23:51:26.493Z,1.05
2022-11-17T23:53:55.227Z,1.33
2022-11-17T23:56:24.019Z,1.40
2022-11-17T23:58:52.849Z,1.45
